createdAt,value
2019-03-27T00:00:03.595Z,4.90
2019-03-27T00:01:05.548Z,4.93
2019-03-27T00:02:03.588Z,4.94
2019-03-27T00:03:03.798Z,5.00
2019-03-27T00:04:03.633Z,4.97
2019-03-27T00:05:04.161Z,4.89
2019-03-27T00:06:03.527Z,4.89
2019-03-27T00:07:03.549Z,4.87
2019-03-27T00:08:03.507Z,4.94
2019-03-27T00:09:14.444Z,4.89
2019-03-27T00:10:06.435Z,4.90
2019-03-27T00:11:03.519Z,4.99
2019-03-27T00:12:03.459Z,4.90
2019-03-27T00:13:03.523Z,5.04
2019-03-27T00:14:03.432Z,5.08
2019-03-27T00:15:12.878Z,5.11
2019-03-27T00:16:04.493Z,5.23
2019-03-27T00:17:03.399Z,5.26
2019-03-27T00:18:03.758Z,5.30
2019-03-27T00:19:03.684Z,5.43
2019-03-27T00:20:04.298Z,5.43
2019-03-27T00:21:07.363Z,5.44
2019-03-27T00:22:04.602Z,5.46
2019-03-27T00:23:03.329Z,5.41
2019-03-27T00:24:03.320Z,5.53
2019-03-27T00:25:03.320Z,5.57
2019-03-27T00:26:03.307Z,5.57
2019-03-27T00:27:03.413Z,5.68
2019-03-27T00:28:03.357Z,5.61
2019-03-27T00:29:03.268Z,5.64
2019-03-27T00:30:03.255Z,5.59
2019-03-27T00:31:03.241Z,5.61
2019-03-27T00:32:03.620Z,5.71
2019-03-27T00:33:03.235Z,5.64
2019-03-27T00:34:03.214Z,5.62
2019-03-27T00:35:03.221Z,5.64
2019-03-27T00:36:03.338Z,5.65
2019-03-27T00:37:03.178Z,5.68
2019-03-27T00:38:03.330Z,5.65
2019-03-27T00:39:04.170Z,5.66
2019-03-27T00:40:03.299Z,5.72
2019-03-27T00:41:03.258Z,5.76
2019-03-27T00:42:03.133Z,5.83
2019-03-27T00:43:04.226Z,5.79
2019-03-27T00:44:03.117Z,5.69
2019-03-27T00:45:03.125Z,5.76
2019-03-27T00:46:03.077Z,5.76
2019-03-27T00:47:03.409Z,5.73
2019-03-27T00:48:03.215Z,5.79
2019-03-27T00:49:03.094Z,5.87
2019-03-27T00:50:03.054Z,5.80
2019-03-27T00:51:03.032Z,5.84
2019-03-27T00:52:03.012Z,5.73
2019-03-27T00:53:03.191Z,5.79
2019-03-27T00:54:02.991Z,5.76
2019-03-27T00:55:02.989Z,5.75
2019-03-27T00:56:02.967Z,5.66
2019-03-27T00:57:02.967Z,5.68
2019-03-27T00:58:02.950Z,5.76
2019-03-27T00:59:03.220Z,5.69
2019-03-27T01:00:03.023Z,5.73
2019-03-27T01:01:03.363Z,5.76
2019-03-27T01:02:03.080Z,5.76
2019-03-27T01:03:02.900Z,5.76
2019-03-27T01:04:03.388Z,5.80
2019-03-27T01:05:02.901Z,5.75
2019-03-27T01:06:02.878Z,5.75
2019-03-27T01:07:02.854Z,5.80
2019-03-27T01:08:02.849Z,5.69
2019-03-27T01:09:03.421Z,5.82
2019-03-27T01:10:02.948Z,5.83
2019-03-27T01:11:02.818Z,5.82
2019-03-27T01:12:06.797Z,5.71
2019-03-27T01:13:02.790Z,5.80
2019-03-27T01:14:02.780Z,5.80
2019-03-27T01:15:02.761Z,5.65
2019-03-27T01:16:02.760Z,5.65
2019-03-27T01:17:04.258Z,5.68
2019-03-27T01:18:02.749Z,5.65
2019-03-27T01:19:02.833Z,5.64
2019-03-27T01:20:02.718Z,5.66
2019-03-27T01:21:02.765Z,5.66
2019-03-27T01:22:02.696Z,5.64
2019-03-27T01:23:03.176Z,5.62
2019-03-27T01:24:02.669Z,5.59
2019-03-27T01:25:02.660Z,5.56
2019-03-27T01:26:02.639Z,5.61
2019-03-27T01:27:02.629Z,5.64
2019-03-27T01:28:02.627Z,5.48
2019-03-27T01:29:02.831Z,5.54
2019-03-27T01:30:02.606Z,5.50
2019-03-27T01:31:02.736Z,5.48
2019-03-27T01:32:02.579Z,5.36
2019-03-27T01:33:05.445Z,5.36
2019-03-27T01:34:02.685Z,5.44
2019-03-27T01:35:05.474Z,5.41
2019-03-27T01:36:02.716Z,5.39
2019-03-27T01:37:02.537Z,5.32
2019-03-27T01:38:02.533Z,5.25
2019-03-27T01:39:02.691Z,5.33
2019-03-27T01:40:03.257Z,5.35
2019-03-27T01:41:02.490Z,5.25
2019-03-27T01:42:02.466Z,5.26
2019-03-27T01:43:02.456Z,5.36
2019-03-27T01:44:02.479Z,5.32
2019-03-27T01:45:02.941Z,5.30
2019-03-27T01:46:02.770Z,5.26
2019-03-27T01:47:02.471Z,5.21
2019-03-27T01:48:02.533Z,5.21
2019-03-27T01:49:02.539Z,5.18
2019-03-27T01:50:02.894Z,5.18
2019-03-27T01:51:05.210Z,5.11
2019-03-27T01:52:02.501Z,5.10
2019-03-27T01:53:04.847Z,5.10
2019-03-27T01:54:04.161Z,5.04
2019-03-27T01:55:02.324Z,5.07
2019-03-27T01:56:02.613Z,4.96
2019-03-27T01:57:08.215Z,4.97
2019-03-27T01:58:02.399Z,5.05
2019-03-27T01:59:02.291Z,5.07
2019-03-27T02:00:03.137Z,5.08
2019-03-27T02:01:03.555Z,5.10
2019-03-27T02:02:02.793Z,5.17
2019-03-27T02:03:02.514Z,5.17
2019-03-27T02:04:02.445Z,5.23
2019-03-27T02:05:02.418Z,5.23
2019-03-27T02:06:02.438Z,5.23
2019-03-27T02:07:03.425Z,5.29
2019-03-27T02:08:02.466Z,5.26
2019-03-27T02:09:03.201Z,5.36
2019-03-27T02:10:02.532Z,5.41
2019-03-27T02:11:02.473Z,5.43
2019-03-27T02:12:02.394Z,5.47
2019-03-27T02:13:02.551Z,5.46
2019-03-27T02:14:03.505Z,5.50
2019-03-27T02:15:02.720Z,5.53
2019-03-27T02:16:07.105Z,5.57
2019-03-27T02:17:03.085Z,5.54
2019-03-27T02:18:03.271Z,5.50
2019-03-27T02:19:02.343Z,5.66
2019-03-27T02:20:02.364Z,5.61
2019-03-27T02:21:02.330Z,5.65
2019-03-27T02:22:02.447Z,5.59
2019-03-27T02:23:03.143Z,5.50
2019-03-27T02:24:03.393Z,5.53
2019-03-27T02:25:02.386Z,5.54
2019-03-27T02:26:02.671Z,5.50
2019-03-27T02:27:02.274Z,5.41
2019-03-27T02:28:02.417Z,5.48
2019-03-27T02:29:16.481Z,5.46
2019-03-27T02:30:03.130Z,5.35
2019-03-27T02:31:04.383Z,5.39
2019-03-27T02:32:02.699Z,5.41
2019-03-27T02:33:02.134Z,5.44
2019-03-27T02:34:02.346Z,5.41
2019-03-27T02:35:02.152Z,5.38
2019-03-27T02:36:02.128Z,5.44
2019-03-27T02:37:02.999Z,5.38
2019-03-27T02:38:02.436Z,5.41
2019-03-27T02:39:02.251Z,5.41
2019-03-27T02:40:02.400Z,5.41
2019-03-27T02:41:03.150Z,5.41
2019-03-27T02:42:02.357Z,5.36
2019-03-27T02:43:02.305Z,5.36
2019-03-27T02:44:04.660Z,5.36
2019-03-27T02:45:03.849Z,5.41
2019-03-27T02:46:03.039Z,5.43
2019-03-27T02:47:02.944Z,5.43
2019-03-27T02:48:02.274Z,5.43
2019-03-27T02:49:02.276Z,5.36
2019-03-27T02:50:02.195Z,5.36
2019-03-27T02:51:03.113Z,5.39
2019-03-27T02:52:03.150Z,5.44
2019-03-27T02:53:02.510Z,5.48
2019-03-27T02:54:02.156Z,5.57
2019-03-27T02:55:02.504Z,5.50
2019-03-27T02:56:02.163Z,5.51
2019-03-27T02:57:03.150Z,5.59
2019-03-27T02:58:02.323Z,5.54
2019-03-27T02:59:02.624Z,5.54
2019-03-27T03:00:02.587Z,5.61
2019-03-27T03:01:02.674Z,5.57
2019-03-27T03:02:02.250Z,5.65
2019-03-27T03:03:03.068Z,5.71
2019-03-27T03:04:02.349Z,5.73
2019-03-27T03:05:04.123Z,5.73
2019-03-27T03:06:07.941Z,5.86
2019-03-27T03:07:02.384Z,5.89
2019-03-27T03:08:02.950Z,5.98
2019-03-27T03:09:03.511Z,5.94
2019-03-27T03:10:02.150Z,5.98
2019-03-27T03:11:02.225Z,5.98
2019-03-27T03:12:02.361Z,6.08
2019-03-27T03:13:02.252Z,6.04
2019-03-27T03:14:05.050Z,6.08
2019-03-27T03:15:02.239Z,6.09
2019-03-27T03:16:02.424Z,6.04
2019-03-27T03:17:02.189Z,6.09
2019-03-27T03:18:02.532Z,6.08
2019-03-27T03:19:03.842Z,6.08
2019-03-27T03:20:02.384Z,6.08
2019-03-27T03:21:02.023Z,6.12
2019-03-27T03:22:02.363Z,6.22
2019-03-27T03:23:02.214Z,6.05
2019-03-27T03:24:03.192Z,6.08
2019-03-27T03:25:02.243Z,6.08
2019-03-27T03:26:02.694Z,6.17
2019-03-27T03:27:02.321Z,6.20
2019-03-27T03:28:02.370Z,6.24
2019-03-27T03:29:03.286Z,6.19
2019-03-27T03:30:02.349Z,6.17
2019-03-27T03:31:02.202Z,6.19
2019-03-27T03:32:02.276Z,6.08
2019-03-27T03:33:02.427Z,6.19
2019-03-27T03:34:02.260Z,6.12
2019-03-27T03:35:03.484Z,6.12
2019-03-27T03:36:02.213Z,6.09
2019-03-27T03:37:03.382Z,6.17
2019-03-27T03:38:02.200Z,6.14
2019-03-27T03:39:02.110Z,6.12
2019-03-27T03:40:02.283Z,6.20
2019-03-27T03:41:02.986Z,6.24
2019-03-27T03:42:02.985Z,6.17
2019-03-27T03:43:02.367Z,6.26
2019-03-27T03:44:02.363Z,6.26
2019-03-27T03:45:02.244Z,6.36
2019-03-27T03:46:02.273Z,6.31
2019-03-27T03:47:02.933Z,6.33
2019-03-27T03:48:02.158Z,6.35
2019-03-27T03:49:01.977Z,6.39
2019-03-27T03:50:01.915Z,6.35
2019-03-27T03:51:02.196Z,6.31
2019-03-27T03:52:03.569Z,6.46
2019-03-27T03:53:02.189Z,6.42
2019-03-27T03:54:03.696Z,6.42
2019-03-27T03:55:04.679Z,6.39
2019-03-27T03:56:01.910Z,6.36
2019-03-27T03:57:01.966Z,6.42
2019-03-27T03:58:03.283Z,6.48
2019-03-27T03:59:01.295Z,6.39
2019-03-27T04:00:02.997Z,6.38
2019-03-27T04:01:03.003Z,6.45
2019-03-27T04:02:00.961Z,6.44
2019-03-27T04:03:03.262Z,6.41
2019-03-27T04:04:03.111Z,6.44
2019-03-27T04:05:00.906Z,6.42
2019-03-27T04:06:00.888Z,6.39
2019-03-27T04:07:00.914Z,6.51
2019-03-27T04:08:00.894Z,6.44
2019-03-27T04:09:11.708Z,6.44
2019-03-27T04:10:00.845Z,6.46
2019-03-27T04:11:00.855Z,6.52
2019-03-27T04:12:00.818Z,6.39
2019-03-27T04:13:00.951Z,6.56
2019-03-27T04:14:00.876Z,6.52
2019-03-27T04:15:16.799Z,6.48
2019-03-27T04:16:04.980Z,6.49
2019-03-27T04:17:16.253Z,6.45
2019-03-27T04:18:02.162Z,6.51
2019-03-27T04:19:00.749Z,6.49
2019-03-27T04:20:03.065Z,6.49
2019-03-27T04:21:00.919Z,6.60
2019-03-27T04:22:00.735Z,6.56
2019-03-27T04:23:00.885Z,6.48
2019-03-27T04:24:00.695Z,6.54
2019-03-27T04:25:00.694Z,6.52
2019-03-27T04:26:09.862Z,6.54
2019-03-27T04:27:02.570Z,6.67
2019-03-27T04:28:00.648Z,6.48
2019-03-27T04:29:00.642Z,6.64
2019-03-27T04:30:00.626Z,6.62
2019-03-27T04:31:00.616Z,6.63
2019-03-27T04:32:00.813Z,6.64
2019-03-27T04:33:00.599Z,6.60
2019-03-27T04:34:00.587Z,6.67
2019-03-27T04:35:00.670Z,6.69
2019-03-27T04:36:00.569Z,6.69
2019-03-27T04:37:02.451Z,6.74
2019-03-27T04:38:00.750Z,6.72
2019-03-27T04:39:00.644Z,6.70
2019-03-27T04:40:02.214Z,6.74
2019-03-27T04:41:00.505Z,6.70
2019-03-27T04:42:00.511Z,6.66
2019-03-27T04:43:01.921Z,6.69
2019-03-27T04:44:00.483Z,6.69
2019-03-27T04:45:00.473Z,6.70
2019-03-27T04:46:00.490Z,6.69
2019-03-27T04:47:00.431Z,6.66
2019-03-27T04:48:02.211Z,6.72
2019-03-27T04:49:00.434Z,6.69
2019-03-27T04:50:00.787Z,6.64
2019-03-27T04:51:00.394Z,6.72
2019-03-27T04:52:00.472Z,6.75
2019-03-27T04:53:00.376Z,6.64
2019-03-27T04:54:00.510Z,6.75
2019-03-27T04:55:00.435Z,6.72
2019-03-27T04:56:01.940Z,6.67
2019-03-27T04:57:00.853Z,6.74
2019-03-27T04:58:01.142Z,6.72
2019-03-27T04:59:00.318Z,6.66
2019-03-27T05:00:00.434Z,6.70
2019-03-27T05:01:00.292Z,6.74
2019-03-27T05:02:00.891Z,6.77
2019-03-27T05:03:00.269Z,6.75
2019-03-27T05:04:00.256Z,6.63
2019-03-27T05:05:00.384Z,6.67
2019-03-27T05:06:00.314Z,6.81
2019-03-27T05:07:00.492Z,6.75
2019-03-27T05:08:00.386Z,6.77
2019-03-27T05:09:00.225Z,6.84
2019-03-27T05:10:00.344Z,6.82
2019-03-27T05:11:00.264Z,6.81
2019-03-27T05:12:00.166Z,6.87
2019-03-27T05:13:00.642Z,6.84
2019-03-27T05:14:00.367Z,6.82
2019-03-27T05:15:00.267Z,6.85
2019-03-27T05:16:00.123Z,6.89
2019-03-27T05:17:00.116Z,6.84
2019-03-27T05:18:00.104Z,6.84
2019-03-27T05:19:00.088Z,6.89
2019-03-27T05:20:00.385Z,6.95
2019-03-27T05:21:00.063Z,6.88
2019-03-27T05:22:00.158Z,6.95
2019-03-27T05:23:00.150Z,6.96
2019-03-27T05:24:00.032Z,7.00
2019-03-27T05:25:00.365Z,7.05
2019-03-27T05:26:00.659Z,6.95
2019-03-27T05:27:03.740Z,6.99
2019-03-27T05:28:00.240Z,7.03
2019-03-27T05:28:59.982Z,7.03
2019-03-27T05:30:00.355Z,6.96
2019-03-27T05:31:00.349Z,7.07
2019-03-27T05:31:59.972Z,7.02
2019-03-27T05:32:59.940Z,7.02
2019-03-27T05:33:59.955Z,7.03
2019-03-27T05:34:59.966Z,7.13
2019-03-27T05:36:00.515Z,7.06
2019-03-27T05:37:00.044Z,7.11
2019-03-27T05:37:59.977Z,7.07
2019-03-27T05:38:59.976Z,7.11
2019-03-27T05:39:59.978Z,7.07
2019-03-27T05:41:00.837Z,7.13
2019-03-27T05:42:00.407Z,7.13
2019-03-27T05:43:01.310Z,7.20
2019-03-27T05:44:00.376Z,7.23
2019-03-27T05:45:00.452Z,7.14
2019-03-27T05:45:59.799Z,7.20
2019-03-27T05:47:00.086Z,7.17
2019-03-27T05:48:04.777Z,7.28
2019-03-27T05:48:59.763Z,7.29
2019-03-27T05:50:00.372Z,7.31
2019-03-27T05:50:59.751Z,7.31
2019-03-27T05:51:59.741Z,7.21
2019-03-27T05:52:59.763Z,7.31
2019-03-27T05:54:00.556Z,7.31
2019-03-27T05:54:59.694Z,7.23
2019-03-27T05:55:59.947Z,7.15
2019-03-27T05:56:59.674Z,7.25
2019-03-27T05:57:59.719Z,7.29
2019-03-27T05:59:00.017Z,7.39
2019-03-27T06:00:15.189Z,7.36
2019-03-27T06:00:59.929Z,7.39
2019-03-27T06:01:59.953Z,7.40
2019-03-27T06:02:59.612Z,7.42
2019-03-27T06:03:59.590Z,7.39
2019-03-27T06:04:59.585Z,7.36
2019-03-27T06:05:59.707Z,7.39
2019-03-27T06:06:59.789Z,7.35
2019-03-27T06:07:59.557Z,7.39
2019-03-27T06:09:00.306Z,7.38
2019-03-27T06:09:59.533Z,7.32
2019-03-27T06:10:59.519Z,7.48
2019-03-27T06:11:59.511Z,7.50
2019-03-27T06:12:59.944Z,7.42
2019-03-27T06:13:59.503Z,7.54
2019-03-27T06:14:59.582Z,7.42
2019-03-27T06:15:59.468Z,7.45
2019-03-27T06:16:59.726Z,7.36
2019-03-27T06:18:12.542Z,7.56
2019-03-27T06:19:00.429Z,7.47
2019-03-27T06:19:59.482Z,7.56
2019-03-27T06:20:59.420Z,7.57
2019-03-27T06:21:59.401Z,7.45
2019-03-27T06:22:59.389Z,7.45
2019-03-27T06:23:59.857Z,7.58
2019-03-27T06:24:59.374Z,7.50
2019-03-27T06:25:59.359Z,7.47
2019-03-27T06:26:59.345Z,7.54
2019-03-27T06:27:59.342Z,7.53
2019-03-27T06:29:00.361Z,7.51
2019-03-27T06:29:59.352Z,7.51
2019-03-27T06:30:59.492Z,7.50
2019-03-27T06:31:59.685Z,7.53
2019-03-27T06:32:59.346Z,7.56
2019-03-27T06:34:00.009Z,7.61
2019-03-27T06:34:59.254Z,7.63
2019-03-27T06:35:59.258Z,7.63
2019-03-27T06:36:59.239Z,7.61
2019-03-27T06:37:59.229Z,7.67
2019-03-27T06:38:59.218Z,7.76
2019-03-27T06:40:00.016Z,7.82
2019-03-27T06:40:59.190Z,7.88
2019-03-27T06:41:59.241Z,7.94
2019-03-27T06:42:59.165Z,7.90
2019-03-27T06:43:59.161Z,7.88
2019-03-27T06:44:59.154Z,7.91
2019-03-27T06:45:59.391Z,7.90
2019-03-27T06:46:59.260Z,7.93
2019-03-27T06:47:59.112Z,7.93
2019-03-27T06:48:59.250Z,7.91
2019-03-27T06:49:59.099Z,7.88
2019-03-27T06:50:59.298Z,7.85
2019-03-27T06:52:07.408Z,7.88
2019-03-27T06:53:02.556Z,7.90
2019-03-27T06:53:59.050Z,7.88
2019-03-27T06:54:59.073Z,8.00
2019-03-27T06:55:59.900Z,7.94
2019-03-27T06:57:01.195Z,8.12
2019-03-27T06:57:59.004Z,8.06
2019-03-27T06:59:04.261Z,8.10
2019-03-27T06:59:59.002Z,8.03
2019-03-27T07:00:59.033Z,8.09
2019-03-27T07:01:59.068Z,8.15
2019-03-27T07:02:58.952Z,8.09
2019-03-27T07:04:09.934Z,8.16
2019-03-27T07:05:00.702Z,8.19
2019-03-27T07:05:59.082Z,8.28
2019-03-27T07:06:58.912Z,8.31
2019-03-27T07:07:58.908Z,8.46
2019-03-27T07:08:58.906Z,8.53
2019-03-27T07:09:59.544Z,8.38
2019-03-27T07:10:59.487Z,8.48
2019-03-27T07:11:58.860Z,8.52
2019-03-27T07:12:58.836Z,8.46
2019-03-27T07:13:58.838Z,8.69
2019-03-27T07:14:59.262Z,8.78
2019-03-27T07:15:58.812Z,8.84
2019-03-27T07:16:58.801Z,8.91
2019-03-27T07:17:58.790Z,8.94
2019-03-27T07:18:58.769Z,9.00
2019-03-27T07:20:02.414Z,9.08
2019-03-27T07:20:59.124Z,9.02
2019-03-27T07:21:58.751Z,9.04
2019-03-27T07:22:59.118Z,9.19
2019-03-27T07:23:58.959Z,9.23
2019-03-27T07:24:59.307Z,9.28
2019-03-27T07:25:58.897Z,9.26
2019-03-27T07:26:58.961Z,9.39
2019-03-27T07:27:58.687Z,9.58
2019-03-27T07:28:58.664Z,9.59
2019-03-27T07:30:09.923Z,9.69
2019-03-27T07:30:58.653Z,9.73
2019-03-27T07:31:58.771Z,9.69
2019-03-27T07:32:58.624Z,9.77
2019-03-27T07:33:58.608Z,9.98
2019-03-27T07:34:58.607Z,10.02
2019-03-27T07:35:58.597Z,10.04
2019-03-27T07:36:58.595Z,10.09
2019-03-27T07:37:58.854Z,10.09
2019-03-27T07:39:10.396Z,10.17
2019-03-27T07:39:59.557Z,10.20
2019-03-27T07:40:59.214Z,10.15
2019-03-27T07:41:58.546Z,10.25
2019-03-27T07:42:59.026Z,10.23
2019-03-27T07:43:58.498Z,10.25
2019-03-27T07:44:58.508Z,10.25
2019-03-27T07:45:58.505Z,10.33
2019-03-27T07:46:58.480Z,10.33
2019-03-27T07:47:59.238Z,10.23
2019-03-27T07:48:58.454Z,10.22
2019-03-27T07:49:58.437Z,10.16
2019-03-27T07:50:58.451Z,10.12
2019-03-27T07:51:58.425Z,10.16
2019-03-27T07:52:58.411Z,10.26
2019-03-27T07:53:58.847Z,10.12
2019-03-27T07:54:58.652Z,10.12
2019-03-27T07:55:58.364Z,9.84
2019-03-27T07:56:59.374Z,9.87
2019-03-27T07:57:58.377Z,9.98
2019-03-27T07:58:59.930Z,10.05
2019-03-27T07:59:58.369Z,9.99
2019-03-27T08:01:13.789Z,10.09
2019-03-27T08:01:58.822Z,10.07
2019-03-27T08:02:58.923Z,10.20
2019-03-27T08:03:58.535Z,10.04
2019-03-27T08:04:58.289Z,10.12
2019-03-27T08:05:58.404Z,10.02
2019-03-27T08:06:58.523Z,9.89
2019-03-27T08:07:58.884Z,9.87
2019-03-27T08:08:58.500Z,9.91
2019-03-27T08:10:04.881Z,9.92
2019-03-27T08:10:58.237Z,9.86
2019-03-27T08:11:58.347Z,9.86
2019-03-27T08:12:58.237Z,9.76
2019-03-27T08:13:58.344Z,9.87
2019-03-27T08:14:58.166Z,9.86
2019-03-27T08:15:58.774Z,9.86
2019-03-27T08:16:58.163Z,9.73
2019-03-27T08:17:58.165Z,9.74
2019-03-27T08:19:07.497Z,9.72
2019-03-27T08:20:00.396Z,9.69
2019-03-27T08:20:58.364Z,9.76
2019-03-27T08:21:58.114Z,9.79
2019-03-27T08:22:58.145Z,9.68
2019-03-27T08:23:58.846Z,9.73
2019-03-27T08:24:58.138Z,9.72
2019-03-27T08:25:58.042Z,9.72
2019-03-27T08:26:58.481Z,9.79
2019-03-27T08:27:58.037Z,9.95
2019-03-27T08:28:58.287Z,10.12
2019-03-27T08:29:58.271Z,10.05
2019-03-27T08:31:00.695Z,10.10
2019-03-27T08:31:57.987Z,10.16
2019-03-27T08:33:00.759Z,9.99
2019-03-27T08:33:57.988Z,10.07
2019-03-27T08:34:58.057Z,10.09
2019-03-27T08:35:58.231Z,10.12
2019-03-27T08:36:58.989Z,10.15
2019-03-27T08:37:58.046Z,10.15
2019-03-27T08:38:58.557Z,10.16
2019-03-27T08:39:57.946Z,10.07
2019-03-27T08:40:57.955Z,10.10
2019-03-27T08:41:57.943Z,10.02
2019-03-27T08:42:57.951Z,10.01
2019-03-27T08:43:58.158Z,9.91
2019-03-27T08:44:58.362Z,9.84
2019-03-27T08:45:58.603Z,9.73
2019-03-27T08:46:57.903Z,9.76
2019-03-27T08:47:58.309Z,9.76
2019-03-27T08:48:58.297Z,9.89
2019-03-27T08:49:58.184Z,9.92
2019-03-27T08:50:57.757Z,9.92
2019-03-27T08:51:58.981Z,9.98
2019-03-27T08:52:57.736Z,10.01
2019-03-27T08:53:57.952Z,9.94
2019-03-27T08:54:58.040Z,9.84
2019-03-27T08:55:57.720Z,9.87
2019-03-27T08:56:57.773Z,9.73
2019-03-27T08:57:58.762Z,9.76
2019-03-27T08:58:57.678Z,9.92
2019-03-27T08:59:58.005Z,9.79
2019-03-27T09:00:57.989Z,9.72
2019-03-27T09:01:57.663Z,9.80
2019-03-27T09:02:57.654Z,9.76
2019-03-27T09:03:57.617Z,9.77
2019-03-27T09:04:57.603Z,9.74
2019-03-27T09:05:57.927Z,9.66
2019-03-27T09:06:57.601Z,9.87
2019-03-27T09:07:57.590Z,9.92
2019-03-27T09:08:57.565Z,10.15
2019-03-27T09:09:57.557Z,10.37
2019-03-27T09:10:57.545Z,10.59
2019-03-27T09:12:05.718Z,10.69
2019-03-27T09:12:58.848Z,10.54
2019-03-27T09:13:57.510Z,10.63
2019-03-27T09:14:57.495Z,10.74
2019-03-27T09:15:57.561Z,10.99
2019-03-27T09:16:57.473Z,10.97
2019-03-27T09:17:58.508Z,10.79
2019-03-27T09:18:57.453Z,10.61
2019-03-27T09:19:57.451Z,10.49
2019-03-27T09:20:57.429Z,10.35
2019-03-27T09:21:57.426Z,10.31
2019-03-27T09:22:57.421Z,10.38
2019-03-27T09:23:58.242Z,10.46
2019-03-27T09:24:57.387Z,10.71
2019-03-27T09:25:57.436Z,10.63
2019-03-27T09:26:57.362Z,10.54
2019-03-27T09:27:57.355Z,10.54
2019-03-27T09:28:57.792Z,10.61
2019-03-27T09:29:57.338Z,10.84
2019-03-27T09:30:57.327Z,11.51
2019-03-27T09:31:57.310Z,12.39
2019-03-27T09:32:57.395Z,13.08
2019-03-27T09:33:57.291Z,14.18
2019-03-27T09:34:58.063Z,14.28
2019-03-27T09:35:57.621Z,13.87
2019-03-27T09:36:57.299Z,13.47
2019-03-27T09:37:57.243Z,13.33
2019-03-27T09:38:57.256Z,13.12
2019-03-27T09:39:57.225Z,13.49
2019-03-27T09:40:57.502Z,13.79
2019-03-27T09:42:03.652Z,13.74
2019-03-27T09:42:57.188Z,13.52
2019-03-27T09:43:57.177Z,13.08
2019-03-27T09:44:57.181Z,12.78
2019-03-27T09:45:57.175Z,12.40
2019-03-27T09:46:57.466Z,12.20
2019-03-27T09:47:57.149Z,12.10
2019-03-27T09:48:57.132Z,11.94
2019-03-27T09:49:57.370Z,11.77
2019-03-27T09:50:58.556Z,11.73
2019-03-27T09:51:57.763Z,11.59
2019-03-27T09:52:57.086Z,11.40
2019-03-27T09:53:57.527Z,11.30
2019-03-27T09:54:57.094Z,11.12
2019-03-27T09:55:57.047Z,11.19
2019-03-27T09:56:57.502Z,11.23
2019-03-27T09:57:57.030Z,11.29
2019-03-27T09:58:57.466Z,11.41
2019-03-27T09:59:57.015Z,11.35
2019-03-27T10:00:56.991Z,11.47
2019-03-27T10:01:56.994Z,11.51
2019-03-27T10:03:07.460Z,11.44
2019-03-27T10:03:58.418Z,11.30
2019-03-27T10:04:56.966Z,11.23
2019-03-27T10:05:56.942Z,11.18
2019-03-27T10:06:56.981Z,11.23
2019-03-27T10:07:56.941Z,11.22
2019-03-27T10:08:56.926Z,11.18
2019-03-27T10:09:57.276Z,11.11
2019-03-27T10:10:56.935Z,11.04
2019-03-27T10:11:56.869Z,10.96
2019-03-27T10:12:56.858Z,10.87
2019-03-27T10:13:56.867Z,10.82
2019-03-27T10:14:57.045Z,10.76
2019-03-27T10:15:57.308Z,10.82
2019-03-27T10:16:56.815Z,10.75
2019-03-27T10:17:56.798Z,10.74
2019-03-27T10:18:56.796Z,10.71
2019-03-27T10:20:03.299Z,10.81
2019-03-27T10:21:00.145Z,10.99
2019-03-27T10:21:57.262Z,10.96
2019-03-27T10:22:56.749Z,10.82
2019-03-27T10:23:58.753Z,10.75
2019-03-27T10:24:56.733Z,10.82
2019-03-27T10:25:56.728Z,10.82
2019-03-27T10:26:56.930Z,10.84
2019-03-27T10:27:57.036Z,10.94
2019-03-27T10:28:56.697Z,10.92
2019-03-27T10:29:56.671Z,10.99
2019-03-27T10:30:56.739Z,10.89
2019-03-27T10:31:57.199Z,10.92
2019-03-27T10:32:56.634Z,10.97
2019-03-27T10:34:07.818Z,10.99
2019-03-27T10:35:00.475Z,10.87
2019-03-27T10:35:56.639Z,10.82
2019-03-27T10:36:57.802Z,10.72
2019-03-27T10:37:56.583Z,10.76
2019-03-27T10:38:56.751Z,10.78
2019-03-27T10:39:56.711Z,10.61
2019-03-27T10:40:56.732Z,10.61
2019-03-27T10:41:58.175Z,10.69
2019-03-27T10:42:56.901Z,10.75
2019-03-27T10:43:56.520Z,10.71
2019-03-27T10:44:57.445Z,10.79
2019-03-27T10:45:56.809Z,10.90
2019-03-27T10:46:57.086Z,10.74
2019-03-27T10:47:56.487Z,10.87
2019-03-27T10:48:56.472Z,10.84
2019-03-27T10:49:56.453Z,10.82
2019-03-27T10:50:57.089Z,10.96
2019-03-27T10:51:59.200Z,11.07
2019-03-27T10:52:56.423Z,11.23
2019-03-27T10:53:56.406Z,11.26
2019-03-27T10:54:56.403Z,11.25
2019-03-27T10:55:56.455Z,11.19
2019-03-27T10:56:56.822Z,11.23
2019-03-27T10:57:56.480Z,11.26
2019-03-27T10:58:56.371Z,11.25
2019-03-27T10:59:56.388Z,11.33
2019-03-27T11:00:57.156Z,11.29
2019-03-27T11:01:56.319Z,11.45
2019-03-27T11:02:58.393Z,11.52
2019-03-27T11:03:56.303Z,11.55
2019-03-27T11:04:56.523Z,11.62
2019-03-27T11:05:56.934Z,11.65
2019-03-27T11:06:56.301Z,11.55
2019-03-27T11:07:56.259Z,11.70
2019-03-27T11:08:58.369Z,11.68
2019-03-27T11:09:56.249Z,11.69
2019-03-27T11:10:56.296Z,11.70
2019-03-27T11:11:56.206Z,11.75
2019-03-27T11:12:56.337Z,11.72
2019-03-27T11:13:56.207Z,11.73
2019-03-27T11:14:56.852Z,11.73
2019-03-27T11:15:56.158Z,11.68
2019-03-27T11:16:56.159Z,11.80
2019-03-27T11:17:56.143Z,11.81
2019-03-27T11:18:56.477Z,11.80
2019-03-27T11:19:56.218Z,11.78
2019-03-27T11:20:56.608Z,11.95
2019-03-27T11:21:56.146Z,12.12
2019-03-27T11:22:56.090Z,12.09
2019-03-27T11:23:56.127Z,12.07
2019-03-27T11:24:56.357Z,12.04
2019-03-27T11:25:56.184Z,11.86
2019-03-27T11:26:57.234Z,11.78
2019-03-27T11:27:56.218Z,11.78
2019-03-27T11:28:56.023Z,11.70
2019-03-27T11:29:56.340Z,11.66
2019-03-27T11:30:56.019Z,11.48
2019-03-27T11:32:03.894Z,11.37
2019-03-27T11:32:56.466Z,11.30
2019-03-27T11:33:55.985Z,11.32
2019-03-27T11:34:57.145Z,11.26
2019-03-27T11:35:55.957Z,11.19
2019-03-27T11:36:56.521Z,11.04
2019-03-27T11:37:55.950Z,11.02
2019-03-27T11:38:56.497Z,11.07
2019-03-27T11:39:55.917Z,11.04
2019-03-27T11:40:55.924Z,11.07
2019-03-27T11:41:55.914Z,11.22
2019-03-27T11:42:55.994Z,11.18
2019-03-27T11:43:55.923Z,11.10
2019-03-27T11:44:56.782Z,11.05
2019-03-27T11:45:56.161Z,11.19
2019-03-27T11:46:56.160Z,11.36
2019-03-27T11:47:55.948Z,11.50
2019-03-27T11:48:56.268Z,11.68
2019-03-27T11:49:55.929Z,11.75
2019-03-27T11:50:57.155Z,11.77
2019-03-27T11:51:55.766Z,11.78
2019-03-27T11:52:56.333Z,11.73
2019-03-27T11:53:55.761Z,11.77
2019-03-27T11:54:55.773Z,11.78
2019-03-27T11:56:03.244Z,11.69
2019-03-27T11:56:55.708Z,11.65
2019-03-27T11:57:55.943Z,11.63
2019-03-27T11:58:55.695Z,11.57
2019-03-27T11:59:55.741Z,11.54
2019-03-27T12:00:55.670Z,11.29
2019-03-27T12:01:56.461Z,11.32
2019-03-27T12:02:55.662Z,11.27
2019-03-27T12:03:55.784Z,11.33
2019-03-27T12:04:55.637Z,11.30
2019-03-27T12:05:55.678Z,11.36
2019-03-27T12:06:55.890Z,11.47
2019-03-27T12:07:55.585Z,11.59
2019-03-27T12:08:55.581Z,11.62
2019-03-27T12:09:55.569Z,11.86
2019-03-27T12:10:55.889Z,12.09
2019-03-27T12:11:55.559Z,12.36
2019-03-27T12:12:56.004Z,12.58
2019-03-27T12:13:55.799Z,12.75
2019-03-27T12:14:55.581Z,12.98
2019-03-27T12:15:56.496Z,13.28
2019-03-27T12:16:59.456Z,13.49
2019-03-27T12:17:57.150Z,13.72
2019-03-27T12:18:56.064Z,13.62
2019-03-27T12:19:55.451Z,13.33
2019-03-27T12:20:59.557Z,12.97
2019-03-27T12:21:55.451Z,12.62
2019-03-27T12:22:57.841Z,12.35
2019-03-27T12:23:55.971Z,12.12
2019-03-27T12:24:55.463Z,11.73
2019-03-27T12:25:55.595Z,11.63
2019-03-27T12:26:55.437Z,11.26
2019-03-27T12:27:55.372Z,11.27
2019-03-27T12:28:55.367Z,11.18
2019-03-27T12:29:55.942Z,11.05
2019-03-27T12:30:55.361Z,11.22
2019-03-27T12:31:55.327Z,11.30
2019-03-27T12:32:55.319Z,11.26
2019-03-27T12:33:55.313Z,11.35
2019-03-27T12:34:55.296Z,11.48
2019-03-27T12:35:55.731Z,11.50
2019-03-27T12:36:55.271Z,11.35
2019-03-27T12:37:56.149Z,11.30
2019-03-27T12:38:55.289Z,11.14
2019-03-27T12:39:55.242Z,11.10
2019-03-27T12:40:55.227Z,11.11
2019-03-27T12:41:55.216Z,11.00
2019-03-27T12:42:55.710Z,11.15
2019-03-27T12:43:55.410Z,11.25
2019-03-27T12:44:55.259Z,11.27
2019-03-27T12:45:55.205Z,11.29
2019-03-27T12:46:55.164Z,11.29
2019-03-27T12:47:55.980Z,11.23
2019-03-27T12:48:55.378Z,11.14
2019-03-27T12:49:55.125Z,11.15
2019-03-27T12:50:55.179Z,11.02
2019-03-27T12:51:55.337Z,11.07
2019-03-27T12:52:55.251Z,10.89
2019-03-27T12:53:55.294Z,10.94
2019-03-27T12:54:55.109Z,11.15
2019-03-27T12:55:55.062Z,11.45
2019-03-27T12:56:55.058Z,11.65
2019-03-27T12:57:55.052Z,11.65
2019-03-27T12:58:55.530Z,11.77
2019-03-27T12:59:55.023Z,11.69
2019-03-27T13:00:55.013Z,11.54
2019-03-27T13:01:55.000Z,11.47
2019-03-27T13:02:54.992Z,11.45
2019-03-27T13:03:55.248Z,11.35
2019-03-27T13:04:54.961Z,11.25
2019-03-27T13:05:55.005Z,11.11
2019-03-27T13:06:59.960Z,11.19
2019-03-27T13:07:54.958Z,11.10
2019-03-27T13:08:55.363Z,11.11